createdAt,value
2022-11-06T00:01:22.576Z,2.17
2022-11-06T00:04:08.459Z,2.38
2022-11-06T00:06:53.941Z,1.95
2022-11-06T00:09:39.677Z,1.90
2022-11-06T00:12:25.116Z,1.88
2022-11-06T00:15:11.511Z,6.85
2022-11-06T00:17:57.649Z,2.25
2022-11-06T00:20:43.388Z,2.20
2022-11-06T00:23:29.283Z,1.92
2022-11-06T00:26:17.911Z,1.60
2022-11-06T00:29:04.741Z,1.95
2022-11-06T00:31:50.713Z,1.65
2022-11-06T00:34:36.608Z,1.88
2022-11-06T00:37:22.451Z,1.30
2022-11-06T00:40:08.861Z,6.93
2022-11-06T00:42:55.816Z,1.67
2022-11-06T00:45:41.493Z,1.83
2022-11-06T00:48:27.915Z,1.30
2022-11-06T00:51:16.972Z,1.45
2022-11-06T00:54:04.613Z,1.02
2022-11-06T00:56:50.301Z,1.73
2022-11-06T00:59:36.207Z,3.28
2022-11-06T01:02:21.819Z,1.20
2022-11-06T01:05:07.728Z,2.05
2022-11-06T01:07:53.427Z,8.68
2022-11-06T01:10:39.168Z,2.08
2022-11-06T01:13:24.780Z,2.90
2022-11-06T01:16:13.567Z,4.78
2022-11-06T01:18:59.931Z,2.00
2022-11-06T01:21:48.708Z,5.38
2022-11-06T01:24:35.022Z,5.78
2022-11-06T01:27:26.268Z,4.22
2022-11-06T01:30:13.025Z,3.30
2022-11-06T01:32:58.748Z,2.30
2022-11-06T01:35:46.431Z,2.35
2022-11-06T01:38:31.958Z,4.35
2022-11-06T01:41:24.128Z,1.40
2022-11-06T01:44:40.982Z,1.33
2022-11-06T01:47:28.974Z,1.70
2022-11-06T01:50:16.668Z,3.25
2022-11-06T01:53:02.935Z,2.17
2022-11-06T01:55:53.948Z,3.53
2022-11-06T01:58:43.640Z,2.95
2022-11-06T02:01:31.489Z,2.40
2022-11-06T02:04:27.333Z,3.97
2022-11-06T02:07:13.066Z,2.25
2022-11-06T02:09:58.780Z,3.95
2022-11-06T02:13:22.551Z,3.03
2022-11-06T02:16:16.259Z,7.50
2022-11-06T02:22:10.697Z,2.80
2022-11-06T02:24:59.658Z,9.40
2022-11-06T02:27:52.074Z,3.00
2022-11-06T02:30:44.962Z,4.47
2022-11-06T02:33:35.168Z,3.50
2022-11-06T02:36:28.067Z,2.85
2022-11-06T02:39:18.237Z,2.55
2022-11-06T02:42:07.742Z,6.30
2022-11-06T02:44:57.400Z,6.53
2022-11-06T02:47:46.391Z,3.05
2022-11-06T02:50:35.707Z,5.65
2022-11-06T02:53:25.904Z,5.95
2022-11-06T02:56:18.353Z,2.33
2022-11-06T02:59:11.296Z,2.43
2022-11-06T03:02:03.682Z,4.07
2022-11-06T03:05:17.055Z,3.13
2022-11-06T03:08:07.834Z,3.97
2022-11-06T03:11:05.704Z,4.57
2022-11-06T03:14:13.268Z,4.03
2022-11-06T03:17:16.373Z,2.25
2022-11-06T03:20:01.979Z,3.47
2022-11-06T03:23:06.530Z,5.03
2022-11-06T03:26:04.324Z,2.35
2022-11-06T03:28:57.395Z,3.22
2022-11-06T03:32:04.853Z,3.20
2022-11-06T03:35:01.636Z,4.90
2022-11-06T03:37:51.629Z,2.75
2022-11-06T03:40:43.857Z,4.28
2022-11-06T03:43:35.849Z,8.48
2022-11-06T03:46:25.297Z,4.68
2022-11-06T03:49:16.575Z,7.57
2022-11-06T03:52:15.561Z,4.03
2022-11-06T03:55:17.503Z,2.05
2022-11-06T03:58:23.298Z,2.28
2022-11-06T04:01:13.584Z,1.48
2022-11-06T04:04:09.091Z,1.52
2022-11-06T04:07:02.988Z,1.10
2022-11-06T04:10:15.758Z,1.98
2022-11-06T04:13:20.051Z,1.58
2022-11-06T04:16:07.829Z,1.65
2022-11-06T04:18:53.685Z,1.92
2022-11-06T04:22:06.714Z,3.42
2022-11-06T04:25:50.591Z,1.20
2022-11-06T04:28:46.690Z,1.63
2022-11-06T04:31:32.207Z,3.33
2022-11-06T04:34:27.828Z,1.52
2022-11-06T04:37:20.404Z,0.95
2022-11-06T04:40:26.159Z,1.87
2022-11-06T04:43:35.352Z,2.72
2022-11-06T04:46:27.509Z,7.03
2022-11-06T04:49:14.216Z,1.90
2022-11-06T04:52:07.872Z,1.27
2022-11-06T04:54:55.189Z,1.45
2022-11-06T04:57:40.735Z,1.80
2022-11-06T05:00:26.334Z,1.60
2022-11-06T05:03:12.409Z,1.73
2022-11-06T05:05:58.315Z,1.27
2022-11-06T05:08:44.140Z,1.60
2022-11-06T05:11:29.884Z,4.45
2022-11-06T05:14:15.412Z,2.53
2022-11-06T05:17:00.998Z,1.13
2022-11-06T05:19:46.552Z,3.03
2022-11-06T05:22:50.640Z,3.60
2022-11-06T05:25:40.185Z,4.45
2022-11-06T05:28:26.009Z,3.65
2022-11-06T05:31:11.899Z,2.47
2022-11-06T05:33:57.259Z,4.10
2022-11-06T05:36:42.972Z,2.55
2022-11-06T05:39:28.828Z,2.92
2022-11-06T05:42:14.122Z,3.40
2022-11-06T05:44:59.796Z,4.65
2022-11-06T05:47:45.352Z,2.75
2022-11-06T05:50:31.160Z,2.30
2022-11-06T05:53:22.268Z,2.75
2022-11-06T05:56:08.303Z,7.35
2022-11-06T05:58:54.099Z,4.63
2022-11-06T06:04:05.076Z,2.20
2022-11-06T06:06:50.621Z,1.75
2022-11-06T06:09:36.509Z,2.13
2022-11-06T06:12:23.815Z,2.30
2022-11-06T06:15:09.834Z,2.28
2022-11-06T06:17:57.229Z,2.13
2022-11-06T06:20:43.078Z,6.05
2022-11-06T06:23:28.635Z,7.05
2022-11-06T06:26:14.251Z,3.03
2022-11-06T06:28:59.781Z,2.65
2022-11-06T06:31:45.530Z,6.10
2022-11-06T06:34:31.008Z,1.50
2022-11-06T06:37:20.204Z,6.93
2022-11-06T06:40:06.777Z,6.47
2022-11-06T06:42:57.283Z,5.60
2022-11-06T06:45:42.647Z,2.75
2022-11-06T06:48:28.994Z,3.78
2022-11-06T06:51:18.446Z,5.00
2022-11-06T06:54:06.980Z,2.75
2022-11-06T06:56:52.465Z,3.90
2022-11-06T06:59:37.965Z,5.18
2022-11-06T07:02:23.481Z,4.20
2022-11-06T07:05:09.518Z,2.63
2022-11-06T07:07:55.031Z,4.88
2022-11-06T07:10:40.637Z,5.45
2022-11-06T07:13:27.613Z,2.28
2022-11-06T07:16:16.140Z,2.22
2022-11-06T07:19:02.244Z,2.15
2022-11-06T07:21:51.721Z,4.82
2022-11-06T07:24:37.581Z,2.38
2022-11-06T07:27:23.051Z,5.20
2022-11-06T07:30:09.187Z,4.65
2022-11-06T07:32:56.103Z,2.17
2022-11-06T07:35:41.987Z,2.97
2022-11-06T07:38:27.749Z,2.85
2022-11-06T07:41:14.751Z,10.63
2022-11-06T07:44:00.491Z,3.85
2022-11-06T07:46:46.144Z,7.53
2022-11-06T07:49:31.876Z,7.72
2022-11-06T07:52:17.516Z,3.30
2022-11-06T07:55:03.211Z,5.13
2022-11-06T07:57:49.637Z,5.30
2022-11-06T08:00:35.187Z,3.60
2022-11-06T08:03:21.480Z,4.25
2022-11-06T08:06:07.465Z,4.18
2022-11-06T08:08:58.620Z,3.95
2022-11-06T08:11:44.745Z,4.05
2022-11-06T08:14:30.370Z,3.53
2022-11-06T08:17:15.742Z,4.22
2022-11-06T08:20:01.280Z,11.75
2022-11-06T08:22:46.552Z,3.53
2022-11-06T08:25:33.824Z,6.72
2022-11-06T08:28:19.485Z,2.80
2022-11-06T08:31:09.083Z,4.18
2022-11-06T08:33:54.665Z,12.10
2022-11-06T08:36:49.364Z,5.30
2022-11-06T08:39:35.581Z,2.97
2022-11-06T08:42:20.886Z,2.45
2022-11-06T08:45:07.016Z,11.93
2022-11-06T08:47:53.037Z,7.85
2022-11-06T08:50:39.810Z,13.85
2022-11-06T08:53:25.738Z,8.82
2022-11-06T08:56:11.340Z,3.90
2022-11-06T08:58:57.104Z,4.10
2022-11-06T09:01:42.764Z,4.05
2022-11-06T09:04:28.597Z,5.13
2022-11-06T09:07:14.063Z,6.03
2022-11-06T09:09:59.833Z,5.03
2022-11-06T09:12:45.395Z,3.65
2022-11-06T09:15:30.651Z,6.50
2022-11-06T09:22:26.334Z,9.30
2022-11-06T09:25:12.232Z,7.10
2022-11-06T09:27:59.909Z,4.10
2022-11-06T09:30:45.665Z,7.05
2022-11-06T09:33:31.583Z,7.28
2022-11-06T09:36:17.331Z,6.88
2022-11-06T09:39:02.786Z,8.63
2022-11-06T09:42:05.145Z,12.90
2022-11-06T09:45:12.983Z,7.18
2022-11-06T09:48:36.270Z,6.75
2022-11-06T09:51:30.838Z,8.43
2022-11-06T09:54:38.220Z,6.20
2022-11-06T09:57:50.022Z,7.55
2022-11-06T10:00:35.757Z,7.95
2022-11-06T10:03:33.348Z,4.85
2022-11-06T10:06:22.160Z,6.78
2022-11-06T10:09:07.964Z,5.53
2022-11-06T10:12:16.792Z,4.78
2022-11-06T10:15:02.491Z,5.70
2022-11-06T10:18:16.572Z,7.85
2022-11-06T10:21:12.025Z,7.32
2022-11-06T10:24:03.177Z,6.75
2022-11-06T10:26:58.589Z,6.32
2022-11-06T10:29:56.120Z,5.55
2022-11-06T10:33:02.652Z,6.45
2022-11-06T10:36:06.137Z,5.60
2022-11-06T10:41:39.959Z,7.57
2022-11-06T10:44:51.762Z,11.88
2022-11-06T10:47:43.391Z,9.77
2022-11-06T10:50:42.068Z,8.05
2022-11-06T10:53:42.093Z,7.90
2022-11-06T10:57:05.323Z,9.32
2022-11-06T10:59:51.485Z,10.48
2022-11-06T11:02:41.057Z,9.88
2022-11-06T11:05:34.329Z,6.30
2022-11-06T11:08:31.935Z,11.02
2022-11-06T11:11:26.524Z,9.35
2022-11-06T11:14:14.888Z,8.45
2022-11-06T11:17:01.864Z,11.20
2022-11-06T11:19:47.770Z,12.70
2022-11-06T11:22:33.615Z,11.52
2022-11-06T11:25:26.142Z,12.02
2022-11-06T11:28:34.017Z,9.80
2022-11-06T11:31:20.047Z,16.15
2022-11-06T11:34:15.312Z,13.05
2022-11-06T11:37:03.384Z,13.27
2022-11-06T11:39:49.071Z,11.93
2022-11-06T11:42:34.900Z,11.32
2022-11-06T11:45:21.822Z,11.48
2022-11-06T11:48:14.669Z,13.35
2022-11-06T11:51:17.365Z,13.90
2022-11-06T11:54:05.081Z,17.65
2022-11-06T11:57:05.741Z,15.20
2022-11-06T12:00:02.872Z,15.45
2022-11-06T12:02:55.153Z,14.10
2022-11-06T12:05:41.508Z,17.75
2022-11-06T12:08:27.217Z,14.65
2022-11-06T12:11:20.003Z,17.85
2022-11-06T12:14:32.303Z,14.57
2022-11-06T12:17:23.841Z,15.18
2022-11-06T12:20:17.581Z,15.68
2022-11-06T12:23:03.892Z,19.98
2022-11-06T12:26:37.235Z,15.85
2022-11-06T12:29:36.321Z,16.92
2022-11-06T12:32:41.405Z,23.73
2022-11-06T12:35:32.619Z,18.25
2022-11-06T12:38:35.600Z,20.77
2022-11-06T12:41:27.193Z,25.25
2022-11-06T12:44:14.552Z,19.65
2022-11-06T12:47:03.180Z,18.90
2022-11-06T12:50:12.200Z,20.48
2022-11-06T12:53:22.573Z,19.38
2022-11-06T12:56:38.898Z,18.75
2022-11-06T12:59:50.038Z,18.17
2022-11-06T13:02:56.605Z,21.55
2022-11-06T13:06:00.376Z,18.33
2022-11-06T13:08:48.851Z,17.65
2022-11-06T13:11:55.520Z,22.60
2022-11-06T13:15:01.373Z,23.65
2022-11-06T13:18:16.560Z,17.48
2022-11-06T13:21:10.360Z,20.23
2022-11-06T13:24:02.145Z,22.45
2022-11-06T13:26:54.520Z,26.38
2022-11-06T13:29:40.647Z,22.00
2022-11-06T13:32:29.902Z,19.67
2022-11-06T13:35:19.346Z,22.60
2022-11-06T13:38:08.576Z,23.08
2022-11-06T13:41:03.530Z,20.92
2022-11-06T13:43:53.127Z,22.33
2022-11-06T13:46:57.126Z,22.58
2022-11-06T13:50:15.963Z,23.80
2022-11-06T13:53:33.797Z,25.77
2022-11-06T13:56:57.575Z,23.38
2022-11-06T13:59:46.017Z,25.50
2022-11-06T14:03:03.736Z,27.52
2022-11-06T14:06:00.799Z,24.80
2022-11-06T14:08:48.733Z,24.40
2022-11-06T14:11:37.986Z,24.60
2022-11-06T14:14:26.313Z,21.25
2022-11-06T14:17:18.159Z,27.00
2022-11-06T14:20:26.158Z,28.60
2022-11-06T14:23:43.987Z,23.38
2022-11-06T14:26:39.436Z,26.75
2022-11-06T14:29:27.932Z,28.52
2022-11-06T14:32:19.705Z,22.60
2022-11-06T14:35:37.883Z,23.02
2022-11-06T14:38:29.546Z,24.98
2022-11-06T14:41:34.629Z,25.17
2022-11-06T14:44:26.293Z,25.38
2022-11-06T14:47:30.895Z,21.08
2022-11-06T14:50:19.986Z,26.48
2022-11-06T14:53:25.759Z,23.10
2022-11-06T14:56:20.004Z,22.38
2022-11-06T14:59:20.439Z,29.58
2022-11-06T15:02:20.835Z,23.38
2022-11-06T15:05:14.201Z,29.80
2022-11-06T15:08:07.052Z,26.70
2022-11-06T15:10:54.019Z,30.42
2022-11-06T15:13:40.008Z,23.42
2022-11-06T15:16:40.466Z,24.05
2022-11-06T15:19:39.472Z,33.80
2022-11-06T15:22:40.119Z,24.08
2022-11-06T15:25:28.189Z,27.00
2022-11-06T15:28:22.229Z,27.20
2022-11-06T15:31:14.540Z,27.50
2022-11-06T15:34:07.229Z,26.55
2022-11-06T15:37:02.420Z,33.05
2022-11-06T15:39:48.760Z,29.02
2022-11-06T15:42:36.046Z,28.73
2022-11-06T15:45:24.954Z,26.98
2022-11-06T15:48:23.512Z,25.92
2022-11-06T15:51:29.099Z,29.75
2022-11-06T15:54:36.044Z,26.48
2022-11-06T15:57:28.348Z,31.48
2022-11-06T16:00:19.096Z,29.27
2022-11-06T16:03:14.767Z,31.67
2022-11-06T16:06:05.600Z,32.40
2022-11-06T16:08:51.718Z,36.70
2022-11-06T16:11:37.675Z,31.58
2022-11-06T16:14:23.443Z,31.27
2022-11-06T16:17:17.105Z,30.08
2022-11-06T16:20:04.300Z,32.92
2022-11-06T16:22:50.191Z,36.58
2022-11-06T16:25:35.788Z,34.42
2022-11-06T16:28:23.042Z,37.88
2022-11-06T16:31:15.861Z,37.03
2022-11-06T16:34:04.101Z,43.30
2022-11-06T16:36:59.367Z,53.70
2022-11-06T16:39:49.852Z,47.10
2022-11-06T16:42:36.632Z,41.88
2022-11-06T16:45:23.088Z,35.70
2022-11-06T16:48:08.895Z,37.45
2022-11-06T16:50:57.238Z,35.03
2022-11-06T16:53:55.577Z,37.10
2022-11-06T16:56:41.063Z,33.28
2022-11-06T16:59:26.701Z,36.78
2022-11-06T17:02:25.395Z,32.92
2022-11-06T17:05:33.744Z,35.17
2022-11-06T17:08:34.922Z,31.42
2022-11-06T17:11:23.357Z,41.25
2022-11-06T17:14:17.865Z,35.33
2022-11-06T17:17:03.716Z,38.20
2022-11-06T17:19:49.408Z,39.67
2022-11-06T17:22:35.072Z,39.72
2022-11-06T17:25:20.516Z,44.22
2022-11-06T17:28:06.060Z,47.83
2022-11-06T17:30:51.721Z,52.95
2022-11-06T17:33:37.772Z,56.42
2022-11-06T17:36:27.484Z,54.42
2022-11-06T17:39:13.236Z,53.35
2022-11-06T17:41:59.224Z,57.13
2022-11-06T17:44:44.699Z,61.25
2022-11-06T17:47:30.077Z,66.90
2022-11-06T17:50:16.185Z,57.05
2022-11-06T17:53:01.807Z,60.75
2022-11-06T17:55:47.921Z,54.83
2022-11-06T17:58:34.338Z,64.38
2022-11-06T18:01:20.592Z,58.35
2022-11-06T18:04:07.508Z,53.92
2022-11-06T18:06:54.281Z,52.75
2022-11-06T18:09:40.252Z,51.47
2022-11-06T18:12:27.585Z,46.33
2022-11-06T18:15:13.300Z,50.30
2022-11-06T18:17:59.252Z,48.38
2022-11-06T18:20:46.355Z,47.70
2022-11-06T18:23:32.305Z,45.53
2022-11-06T18:26:21.819Z,43.40
2022-11-06T18:29:08.610Z,45.20
2022-11-06T18:31:54.497Z,41.78
2022-11-06T18:34:40.425Z,44.85
2022-11-06T18:37:26.568Z,40.95
2022-11-06T18:40:12.900Z,40.50
2022-11-06T18:42:58.249Z,44.58
2022-11-06T18:45:44.424Z,56.70
2022-11-06T18:48:32.386Z,48.53
2022-11-06T18:51:34.992Z,53.90
2022-11-06T18:54:21.788Z,47.50
2022-11-06T18:57:07.012Z,53.53
2022-11-06T18:59:52.527Z,49.22
2022-11-06T19:02:38.433Z,55.95
2022-11-06T19:05:24.282Z,50.40
2022-11-06T19:08:10.153Z,51.85
2022-11-06T19:10:55.548Z,46.78
2022-11-06T19:13:47.268Z,46.22
2022-11-06T19:16:34.011Z,39.17
2022-11-06T19:19:25.314Z,44.72
2022-11-06T19:22:11.831Z,51.38
2022-11-06T19:24:57.323Z,43.05
2022-11-06T19:27:42.993Z,32.70
2022-11-06T19:30:28.626Z,33.25
2022-11-06T19:33:14.530Z,36.40
2022-11-06T19:36:01.893Z,41.28
2022-11-06T19:38:47.269Z,32.47
2022-11-06T19:41:33.208Z,39.78
2022-11-06T19:44:19.247Z,38.05
2022-11-06T19:47:04.751Z,36.10
2022-11-06T19:49:50.593Z,52.30
2022-11-06T19:52:43.238Z,59.15
2022-11-06T19:58:18.197Z,39.58
2022-11-06T20:01:10.347Z,44.83
2022-11-06T20:03:56.233Z,44.88
2022-11-06T20:06:42.249Z,52.15
2022-11-06T20:09:28.911Z,46.75
2022-11-06T20:12:17.900Z,43.20
2022-11-06T20:15:03.984Z,44.85
2022-11-06T20:17:49.697Z,46.63
2022-11-06T20:20:36.572Z,48.53
2022-11-06T20:23:22.669Z,40.30
2022-11-06T20:26:08.353Z,41.72
2022-11-06T20:28:55.261Z,46.10
2022-11-06T20:31:41.976Z,47.42
2022-11-06T20:34:28.776Z,48.75
2022-11-06T20:37:14.858Z,41.90
2022-11-06T20:40:00.890Z,48.95
2022-11-06T20:42:46.762Z,46.58
2022-11-06T20:45:37.117Z,41.58
2022-11-06T20:48:22.649Z,42.00
2022-11-06T20:51:11.424Z,39.35
2022-11-06T20:53:57.302Z,41.58
2022-11-06T20:56:42.982Z,47.15
2022-11-06T20:59:28.805Z,42.35
2022-11-06T21:02:14.753Z,47.25
2022-11-06T21:05:00.596Z,63.75
2022-11-06T21:07:46.802Z,45.28
2022-11-06T21:10:32.568Z,40.30
2022-11-06T21:13:18.143Z,39.67
2022-11-06T21:16:11.936Z,40.42
2022-11-06T21:21:44.270Z,42.85
2022-11-06T21:24:29.780Z,48.60
2022-11-06T21:27:15.320Z,41.03
2022-11-06T21:30:00.680Z,42.40
2022-11-06T21:32:46.380Z,42.67
2022-11-06T21:35:31.684Z,44.83
2022-11-06T21:38:17.208Z,44.05
2022-11-06T21:41:07.681Z,52.15
2022-11-06T21:43:53.960Z,44.25
2022-11-06T21:46:44.280Z,40.83
2022-11-06T21:49:31.428Z,54.35
2022-11-06T21:52:35.561Z,40.13
2022-11-06T21:55:39.701Z,39.10
2022-11-06T21:58:25.283Z,39.85
2022-11-06T22:01:11.137Z,40.90
2022-11-06T22:03:56.970Z,37.70
2022-11-06T22:06:43.395Z,40.85
2022-11-06T22:09:29.271Z,43.97
2022-11-06T22:12:15.899Z,43.67
2022-11-06T22:15:04.028Z,44.78
2022-11-06T22:17:49.728Z,44.33
2022-11-06T22:20:35.250Z,50.10
2022-11-06T22:23:20.953Z,47.03
2022-11-06T22:26:09.696Z,44.05
2022-11-06T22:28:57.516Z,40.67
2022-11-06T22:31:43.451Z,54.67
2022-11-06T22:34:29.192Z,59.58
2022-11-06T22:37:14.767Z,62.47
2022-11-06T22:40:00.191Z,61.83
2022-11-06T22:42:49.457Z,48.28
2022-11-06T22:45:36.852Z,65.07
2022-11-06T22:48:23.073Z,50.10
2022-11-06T22:51:15.040Z,37.10
2022-11-06T22:54:04.076Z,31.27
2022-11-06T22:56:49.557Z,30.17
2022-11-06T22:59:35.159Z,32.50
2022-11-06T23:02:21.150Z,38.08
2022-11-06T23:05:07.469Z,47.45
2022-11-06T23:07:53.350Z,49.88
2022-11-06T23:10:39.313Z,42.58
2022-11-06T23:13:25.420Z,50.00
2022-11-06T23:16:15.202Z,57.10
2022-11-06T23:19:00.674Z,57.38
2022-11-06T23:21:46.396Z,55.65
2022-11-06T23:24:31.977Z,68.32
2022-11-06T23:27:18.335Z,70.50
2022-11-06T23:30:05.301Z,71.82
2022-11-06T23:32:50.733Z,77.88
2022-11-06T23:35:36.202Z,54.22
2022-11-06T23:38:21.612Z,37.83
2022-11-06T23:41:34.208Z,47.30
2022-11-06T23:44:38.417Z,48.88
2022-11-06T23:47:24.122Z,61.92
2022-11-06T23:50:09.588Z,54.83
2022-11-06T23:52:55.475Z,52.67
2022-11-06T23:55:41.752Z,52.80
2022-11-06T23:58:27.395Z,49.95
